createdAt,value
2022-11-16T00:01:38.531Z,8.67
2022-11-16T00:04:07.112Z,8.66
2022-11-16T00:06:35.482Z,8.65
2022-11-16T00:09:14.860Z,8.64
2022-11-16T00:11:44.692Z,8.67
2022-11-16T00:14:12.980Z,8.64
2022-11-16T00:16:41.679Z,8.62
2022-11-16T00:19:11.841Z,8.63
2022-11-16T00:21:40.204Z,8.64
2022-11-16T00:24:08.658Z,8.66
2022-11-16T00:26:36.892Z,8.65
2022-11-16T00:29:06.991Z,8.61
2022-11-16T00:31:35.419Z,8.61
2022-11-16T00:34:03.721Z,8.60
2022-11-16T00:36:32.148Z,8.62
2022-11-16T00:39:00.540Z,8.64
2022-11-16T00:41:28.851Z,8.62
2022-11-16T00:43:57.851Z,8.64
2022-11-16T00:46:28.121Z,8.67
2022-11-16T00:48:56.401Z,8.67
2022-11-16T00:51:24.658Z,8.70
2022-11-16T00:53:53.203Z,8.71
2022-11-16T00:56:23.071Z,8.70
2022-11-16T00:58:51.463Z,8.70
2022-11-16T01:01:20.104Z,8.69
2022-11-16T01:03:49.863Z,8.70
2022-11-16T01:06:18.353Z,8.69
2022-11-16T01:08:46.748Z,8.69
2022-11-16T01:11:25.410Z,8.68
2022-11-16T01:13:54.063Z,8.67
2022-11-16T01:16:23.574Z,8.65
2022-11-16T01:18:54.632Z,8.61
2022-11-16T01:21:24.111Z,8.62
2022-11-16T01:23:52.463Z,8.62
2022-11-16T01:26:20.810Z,8.63
2022-11-16T01:28:49.304Z,8.65
2022-11-16T01:31:18.131Z,8.65
2022-11-16T01:33:48.247Z,8.65
2022-11-16T01:36:27.743Z,8.68
2022-11-16T01:38:58.676Z,8.72
2022-11-16T01:41:31.442Z,8.71
2022-11-16T01:44:03.217Z,8.70
2022-11-16T01:46:43.749Z,8.65
2022-11-16T01:49:15.842Z,8.65
2022-11-16T01:51:48.785Z,8.62
2022-11-16T01:54:17.561Z,8.58
2022-11-16T01:56:57.524Z,8.58
2022-11-16T01:59:33.239Z,8.54
2022-11-16T02:02:02.304Z,8.49
2022-11-16T02:04:31.902Z,8.50
2022-11-16T02:07:08.041Z,8.51
2022-11-16T02:09:57.890Z,8.52
2022-11-16T02:12:50.771Z,8.51
2022-11-16T02:15:26.639Z,8.54
2022-11-16T02:18:15.021Z,8.48
2022-11-16T02:21:02.643Z,8.50
2022-11-16T02:23:52.101Z,8.50
2022-11-16T02:26:34.781Z,8.46
2022-11-16T02:29:17.765Z,8.43
2022-11-16T02:31:51.896Z,8.41
2022-11-16T02:34:21.700Z,8.42
2022-11-16T02:36:53.132Z,8.45
2022-11-16T02:39:24.643Z,8.47
2022-11-16T02:41:54.559Z,8.44
2022-11-16T02:44:28.372Z,8.37
2022-11-16T02:46:59.830Z,8.35
2022-11-16T02:49:30.271Z,8.36
2022-11-16T02:52:00.630Z,8.39
2022-11-16T02:54:29.373Z,8.38
2022-11-16T02:57:18.878Z,8.37
2022-11-16T02:59:52.052Z,8.37
2022-11-16T03:02:25.414Z,8.34
2022-11-16T03:04:56.401Z,8.26
2022-11-16T03:07:27.634Z,8.24
2022-11-16T03:09:58.220Z,8.25
2022-11-16T03:12:28.789Z,8.23
2022-11-16T03:15:00.508Z,8.20
2022-11-16T03:17:30.610Z,8.17
2022-11-16T03:20:02.718Z,8.20
2022-11-16T03:22:37.141Z,8.17
2022-11-16T03:25:06.247Z,8.09
2022-11-16T03:27:38.525Z,8.03
2022-11-16T03:30:12.096Z,8.01
2022-11-16T03:32:47.160Z,7.99
2022-11-16T03:35:18.412Z,8.00
2022-11-16T03:37:48.829Z,8.00
2022-11-16T03:40:18.541Z,7.98
2022-11-16T03:42:49.719Z,8.01
2022-11-16T03:45:21.510Z,8.02
2022-11-16T03:47:52.229Z,8.02
2022-11-16T03:50:22.370Z,8.05
2022-11-16T03:52:50.661Z,8.11
2022-11-16T03:55:20.069Z,8.12
2022-11-16T03:57:48.598Z,8.15
2022-11-16T04:00:17.120Z,8.15
2022-11-16T04:02:47.418Z,8.15
2022-11-16T04:05:30.608Z,8.17
2022-11-16T04:08:10.990Z,8.14
2022-11-16T04:10:48.183Z,8.16
2022-11-16T04:13:28.094Z,8.18
2022-11-16T04:16:06.889Z,8.17
2022-11-16T04:18:46.629Z,8.15
2022-11-16T04:21:29.729Z,8.17
2022-11-16T04:24:08.110Z,8.18
2022-11-16T04:26:53.413Z,8.19
2022-11-16T04:29:22.234Z,8.21
2022-11-16T04:32:00.544Z,8.22
2022-11-16T04:34:40.624Z,8.21
2022-11-16T04:37:19.914Z,8.23
2022-11-16T04:39:50.203Z,8.23
2022-11-16T04:42:22.403Z,8.25
2022-11-16T04:45:02.265Z,8.25
2022-11-16T04:47:37.324Z,8.26
2022-11-16T04:50:07.908Z,8.27
2022-11-16T04:52:36.303Z,8.27
2022-11-16T04:55:07.172Z,8.26
2022-11-16T04:57:35.570Z,8.27
2022-11-16T05:00:05.828Z,8.29
2022-11-16T05:02:36.466Z,8.29
2022-11-16T05:05:04.993Z,8.24
2022-11-16T05:07:36.300Z,8.25
2022-11-16T05:10:14.135Z,8.27
2022-11-16T05:12:43.877Z,8.28
2022-11-16T05:15:12.544Z,8.29
2022-11-16T05:17:41.076Z,8.29
2022-11-16T05:20:25.307Z,8.30
2022-11-16T05:23:01.044Z,8.29
2022-11-16T05:25:36.699Z,8.31
2022-11-16T05:28:10.044Z,8.33
2022-11-16T05:30:42.305Z,8.31
2022-11-16T05:33:11.326Z,8.31
2022-11-16T05:35:42.803Z,8.32
2022-11-16T05:38:12.611Z,8.32
2022-11-16T05:40:45.789Z,8.31
2022-11-16T05:43:14.246Z,8.34
2022-11-16T05:45:51.799Z,8.34
2022-11-16T05:48:22.625Z,8.35
2022-11-16T05:50:51.116Z,8.34
2022-11-16T05:53:26.617Z,8.35
2022-11-16T05:55:55.325Z,8.37
2022-11-16T05:58:25.246Z,8.36
2022-11-16T06:00:53.933Z,8.32
2022-11-16T06:03:22.662Z,8.32
2022-11-16T06:05:56.003Z,8.33
2022-11-16T06:08:28.540Z,8.36
2022-11-16T06:11:02.583Z,8.35
2022-11-16T06:13:31.154Z,8.34
2022-11-16T06:16:02.447Z,8.35
2022-11-16T06:18:33.091Z,8.37
2022-11-16T06:21:02.987Z,8.38
2022-11-16T06:23:33.536Z,8.42
2022-11-16T06:26:02.222Z,8.41
2022-11-16T06:28:32.256Z,8.41
2022-11-16T06:31:01.243Z,8.37
2022-11-16T06:33:33.721Z,8.38
2022-11-16T06:36:08.453Z,8.39
2022-11-16T06:38:39.387Z,8.40
2022-11-16T06:41:08.926Z,8.38
2022-11-16T06:43:42.936Z,8.39
2022-11-16T06:46:11.877Z,8.39
2022-11-16T06:48:41.644Z,8.36
2022-11-16T06:51:14.004Z,8.38
2022-11-16T06:53:44.121Z,8.39
2022-11-16T06:56:15.217Z,8.40
2022-11-16T06:59:09.677Z,8.39
2022-11-16T07:01:38.281Z,8.40
2022-11-16T07:04:12.476Z,8.40
2022-11-16T07:06:45.515Z,8.40
2022-11-16T07:09:18.386Z,8.43
2022-11-16T07:11:46.883Z,8.41
2022-11-16T07:14:17.848Z,8.42
2022-11-16T07:16:46.384Z,8.42
2022-11-16T07:19:14.779Z,8.40
2022-11-16T07:21:45.014Z,8.43
2022-11-16T07:24:20.006Z,8.44
2022-11-16T07:26:48.435Z,8.45
2022-11-16T07:29:21.796Z,8.45
2022-11-16T07:32:10.207Z,8.44
2022-11-16T07:34:49.684Z,8.45
2022-11-16T07:37:19.025Z,8.48
2022-11-16T07:39:48.686Z,8.49
2022-11-16T07:42:17.503Z,8.51
2022-11-16T07:44:53.445Z,8.48
2022-11-16T07:47:21.817Z,8.45
2022-11-16T07:49:50.164Z,8.46
2022-11-16T07:52:22.553Z,8.49
2022-11-16T07:55:03.624Z,8.51
2022-11-16T07:57:32.464Z,8.54
2022-11-16T08:00:05.460Z,8.55
2022-11-16T08:02:44.535Z,8.54
2022-11-16T08:05:19.110Z,8.57
2022-11-16T08:07:50.068Z,8.60
2022-11-16T08:10:22.432Z,8.60
2022-11-16T08:12:51.710Z,8.60
2022-11-16T08:15:21.625Z,8.57
2022-11-16T08:17:50.045Z,8.54
2022-11-16T08:20:18.662Z,8.54
2022-11-16T08:22:49.946Z,8.58
2022-11-16T08:25:19.696Z,8.61
2022-11-16T08:27:50.175Z,8.64
2022-11-16T08:30:22.125Z,8.66
2022-11-16T08:32:50.336Z,8.70
2022-11-16T08:35:18.632Z,8.72
2022-11-16T08:37:47.626Z,8.74
2022-11-16T08:40:17.466Z,8.75
2022-11-16T08:42:45.829Z,8.78
2022-11-16T08:45:15.797Z,8.82
2022-11-16T08:47:44.114Z,8.88
2022-11-16T08:50:12.319Z,9.00
2022-11-16T08:52:41.136Z,9.08
2022-11-16T08:55:10.461Z,9.12
2022-11-16T08:57:40.095Z,9.14
2022-11-16T09:00:12.616Z,9.19
2022-11-16T09:02:42.270Z,9.23
2022-11-16T09:05:12.620Z,9.28
2022-11-16T09:07:43.749Z,9.31
2022-11-16T09:10:12.137Z,9.37
2022-11-16T09:12:40.788Z,9.42
2022-11-16T09:15:09.659Z,9.48
2022-11-16T09:17:37.879Z,9.45
2022-11-16T09:20:08.566Z,9.43
2022-11-16T09:22:36.907Z,9.40
2022-11-16T09:25:05.418Z,9.35
2022-11-16T09:27:33.740Z,9.45
2022-11-16T09:30:01.931Z,9.53
2022-11-16T09:32:30.348Z,9.53
2022-11-16T09:34:58.491Z,9.50
2022-11-16T09:37:28.138Z,9.50
2022-11-16T09:39:58.122Z,9.51
2022-11-16T09:42:35.224Z,9.57
2022-11-16T09:45:06.666Z,9.63
2022-11-16T09:47:41.600Z,9.63
2022-11-16T09:50:18.299Z,9.64
2022-11-16T09:52:50.845Z,9.65
2022-11-16T09:55:25.238Z,9.68
2022-11-16T09:57:55.450Z,9.69
2022-11-16T10:00:24.356Z,9.69
2022-11-16T10:02:59.842Z,9.72
2022-11-16T10:05:29.959Z,9.71
2022-11-16T10:08:04.905Z,9.69
2022-11-16T10:10:36.638Z,9.70
2022-11-16T10:13:10.118Z,9.73
2022-11-16T10:15:44.378Z,9.77
2022-11-16T10:18:26.360Z,9.74
2022-11-16T10:21:03.684Z,9.74
2022-11-16T10:23:40.671Z,9.75
2022-11-16T10:26:17.127Z,9.73
2022-11-16T10:28:54.776Z,9.69
2022-11-16T10:31:27.532Z,9.65
2022-11-16T10:33:58.330Z,9.64
2022-11-16T10:36:30.852Z,9.65
2022-11-16T10:39:02.988Z,9.68
2022-11-16T10:41:34.898Z,9.69
2022-11-16T10:44:04.211Z,9.71
2022-11-16T10:46:35.158Z,9.71
2022-11-16T10:49:08.120Z,9.73
2022-11-16T10:51:36.608Z,9.74
2022-11-16T10:54:13.012Z,9.75
2022-11-16T10:56:45.618Z,9.80
2022-11-16T10:59:14.828Z,9.82
2022-11-16T11:01:44.111Z,9.84
2022-11-16T11:04:14.328Z,9.85
2022-11-16T11:06:42.840Z,9.86
2022-11-16T11:09:17.711Z,9.89
2022-11-16T11:12:08.247Z,9.90
2022-11-16T11:14:37.344Z,9.89
2022-11-16T11:17:12.451Z,9.89
2022-11-16T11:19:40.811Z,9.90
2022-11-16T11:22:14.842Z,9.90
2022-11-16T11:24:49.721Z,9.89
2022-11-16T11:27:23.540Z,9.86
2022-11-16T11:29:54.181Z,9.86
2022-11-16T11:32:24.642Z,9.87
2022-11-16T11:34:54.788Z,9.89
2022-11-16T11:37:25.070Z,9.93
2022-11-16T11:40:08.411Z,9.96
2022-11-16T11:42:41.608Z,9.97
2022-11-16T11:45:13.977Z,9.99
2022-11-16T11:48:02.720Z,9.99
2022-11-16T11:50:40.731Z,10.00
2022-11-16T11:53:13.971Z,10.02
2022-11-16T11:55:43.732Z,10.02
2022-11-16T11:58:16.941Z,10.04
2022-11-16T12:00:47.905Z,10.05
2022-11-16T12:03:34.289Z,10.06
2022-11-16T12:06:13.713Z,10.07
2022-11-16T12:08:59.812Z,10.10
2022-11-16T12:11:34.617Z,10.11
2022-11-16T12:14:11.093Z,10.11
2022-11-16T12:16:45.009Z,10.14
2022-11-16T12:19:28.072Z,10.15
2022-11-16T12:22:04.101Z,10.14
2022-11-16T12:24:44.794Z,10.15
2022-11-16T12:27:20.018Z,10.16
2022-11-16T12:29:55.062Z,10.16
2022-11-16T12:32:34.723Z,10.13
2022-11-16T12:35:13.227Z,10.15
2022-11-16T12:37:46.749Z,10.14
2022-11-16T12:40:24.321Z,10.15
2022-11-16T12:42:57.546Z,10.17
2022-11-16T12:45:36.680Z,10.16
2022-11-16T12:48:13.538Z,10.15
2022-11-16T12:50:46.461Z,10.13
2022-11-16T12:53:23.710Z,10.14
2022-11-16T12:55:58.770Z,10.12
2022-11-16T12:58:36.260Z,10.13
2022-11-16T13:01:10.544Z,10.13
2022-11-16T13:03:43.026Z,10.14
2022-11-16T13:06:15.620Z,10.14
2022-11-16T13:08:52.179Z,10.14
2022-11-16T13:11:22.203Z,10.15
2022-11-16T13:13:54.427Z,10.14
2022-11-16T13:16:24.283Z,10.14
2022-11-16T13:18:53.654Z,10.16
2022-11-16T13:21:29.962Z,10.15
2022-11-16T13:24:04.142Z,10.14
2022-11-16T13:26:36.233Z,10.13
2022-11-16T13:29:12.956Z,10.15
2022-11-16T13:31:45.185Z,10.15
2022-11-16T13:34:16.226Z,10.14
2022-11-16T13:36:45.980Z,10.13
2022-11-16T13:39:21.467Z,10.14
2022-11-16T13:41:52.087Z,10.15
2022-11-16T13:44:27.375Z,10.14
2022-11-16T13:46:57.823Z,10.15
2022-11-16T13:49:34.236Z,10.18
2022-11-16T13:52:21.998Z,10.18
2022-11-16T13:54:53.497Z,10.16
2022-11-16T13:57:24.727Z,10.14
2022-11-16T13:59:57.576Z,10.12
2022-11-16T14:02:33.765Z,10.11
2022-11-16T14:05:03.244Z,10.10
2022-11-16T14:07:40.761Z,10.10
2022-11-16T14:10:09.197Z,10.10
2022-11-16T14:12:53.093Z,10.10
2022-11-16T14:15:23.603Z,10.09
2022-11-16T14:17:57.826Z,10.09
2022-11-16T14:20:37.307Z,10.08
2022-11-16T14:23:20.546Z,10.04
2022-11-16T14:25:51.599Z,10.01
2022-11-16T14:28:27.467Z,9.98
2022-11-16T14:31:09.941Z,9.96
2022-11-16T14:33:39.094Z,9.93
2022-11-16T14:36:08.978Z,9.90
2022-11-16T14:38:38.859Z,9.88
2022-11-16T14:41:07.699Z,9.85
2022-11-16T14:43:40.050Z,9.83
2022-11-16T14:46:15.476Z,9.79
2022-11-16T14:48:45.629Z,9.77
2022-11-16T14:51:16.386Z,9.75
2022-11-16T14:53:48.318Z,9.75
2022-11-16T14:56:18.035Z,9.75
2022-11-16T14:58:52.877Z,9.75
2022-11-16T15:01:25.069Z,9.73
2022-11-16T15:03:55.826Z,9.71
2022-11-16T15:06:26.155Z,9.70
2022-11-16T15:08:55.807Z,9.68
2022-11-16T15:11:27.304Z,9.64
2022-11-16T15:13:56.078Z,9.63
2022-11-16T15:16:25.806Z,9.61
2022-11-16T15:18:57.703Z,9.61
2022-11-16T15:21:26.228Z,9.58
2022-11-16T15:24:23.330Z,9.57
2022-11-16T15:26:43.016Z,9.55
2022-11-16T15:29:15.605Z,9.53
2022-11-16T15:31:45.638Z,9.49
2022-11-16T15:34:14.319Z,9.42
2022-11-16T15:36:42.829Z,9.40
2022-11-16T15:39:15.105Z,9.39
2022-11-16T15:41:44.331Z,9.37
2022-11-16T15:44:16.377Z,9.37
2022-11-16T15:46:48.441Z,9.38
2022-11-16T15:49:24.231Z,9.38
2022-11-16T15:51:52.479Z,9.40
2022-11-16T15:54:25.345Z,9.35
2022-11-16T15:56:55.481Z,9.31
2022-11-16T15:59:26.288Z,9.32
2022-11-16T16:01:56.349Z,9.29
2022-11-16T16:04:25.272Z,9.29
2022-11-16T16:06:55.046Z,9.29
2022-11-16T16:09:25.443Z,9.26
2022-11-16T16:11:54.837Z,9.25
2022-11-16T16:14:27.182Z,9.25
2022-11-16T16:16:58.200Z,9.21
2022-11-16T16:19:34.028Z,9.15
2022-11-16T16:22:02.959Z,9.15
2022-11-16T16:24:38.759Z,9.15
2022-11-16T16:27:11.478Z,9.13
2022-11-16T16:29:39.869Z,9.11
2022-11-16T16:32:13.548Z,9.07
2022-11-16T16:34:42.869Z,9.06
2022-11-16T16:37:14.221Z,9.05
2022-11-16T16:39:42.631Z,9.02
2022-11-16T16:42:12.151Z,9.01
2022-11-16T16:44:40.550Z,9.00
2022-11-16T16:47:10.548Z,8.97
2022-11-16T16:49:39.089Z,8.96
2022-11-16T16:52:07.860Z,8.94
2022-11-16T16:54:36.230Z,8.92
2022-11-16T16:57:04.607Z,8.92
2022-11-16T16:59:32.951Z,8.96
2022-11-16T17:02:01.157Z,8.97
2022-11-16T17:04:30.954Z,8.96
2022-11-16T17:06:59.147Z,8.97
2022-11-16T17:09:27.537Z,8.97
2022-11-16T17:11:55.751Z,8.98
2022-11-16T17:14:24.983Z,8.98
2022-11-16T17:16:53.326Z,8.98
2022-11-16T17:19:22.118Z,8.96
2022-11-16T17:21:51.966Z,8.95
2022-11-16T17:24:20.234Z,8.96
2022-11-16T17:26:49.255Z,8.96
2022-11-16T17:29:17.640Z,8.97
2022-11-16T17:31:48.001Z,8.96
2022-11-16T17:34:16.536Z,8.95
2022-11-16T17:36:45.003Z,8.96
2022-11-16T17:39:16.157Z,8.92
2022-11-16T17:41:44.598Z,8.86
2022-11-16T17:44:17.207Z,8.84
2022-11-16T17:46:48.650Z,8.80
2022-11-16T17:49:16.889Z,8.78
2022-11-16T17:51:45.564Z,8.75
2022-11-16T17:54:15.272Z,8.76
2022-11-16T17:56:43.731Z,8.77
2022-11-16T17:59:12.132Z,8.80
2022-11-16T18:01:40.927Z,8.78
2022-11-16T18:04:09.426Z,8.77
2022-11-16T18:06:37.802Z,8.77
2022-11-16T18:09:06.080Z,8.74
2022-11-16T18:11:36.069Z,8.73
2022-11-16T18:14:05.952Z,8.73
2022-11-16T18:16:34.771Z,8.70
2022-11-16T18:19:03.521Z,8.70
2022-11-16T18:21:31.878Z,8.67
2022-11-16T18:24:00.548Z,8.69
2022-11-16T18:26:28.733Z,8.70
2022-11-16T18:28:58.414Z,8.68
2022-11-16T18:31:26.740Z,8.67
2022-11-16T18:33:54.930Z,8.68
2022-11-16T18:36:23.382Z,8.68
2022-11-16T18:38:51.679Z,8.66
2022-11-16T18:41:21.187Z,8.63
2022-11-16T18:43:50.458Z,8.65
2022-11-16T18:46:20.183Z,8.63
2022-11-16T18:48:48.461Z,8.63
2022-11-16T18:51:17.938Z,8.66
2022-11-16T18:53:46.156Z,8.65
2022-11-16T18:56:14.421Z,8.66
2022-11-16T18:58:52.344Z,8.63
2022-11-16T19:01:24.042Z,8.56
2022-11-16T19:03:53.168Z,8.56
2022-11-16T19:06:21.449Z,8.55
2022-11-16T19:08:56.304Z,8.51
2022-11-16T19:11:25.654Z,8.50
2022-11-16T19:13:54.994Z,8.46
2022-11-16T19:16:24.932Z,8.49
2022-11-16T19:18:53.187Z,8.50
2022-11-16T19:21:22.078Z,8.53
2022-11-16T19:23:50.991Z,8.57
2022-11-16T19:26:23.632Z,8.60
2022-11-16T19:28:52.552Z,8.61
2022-11-16T19:31:22.261Z,8.60
2022-11-16T19:33:56.286Z,8.57
2022-11-16T19:36:25.011Z,8.55
2022-11-16T19:38:53.205Z,8.53
2022-11-16T19:41:22.748Z,8.56
2022-11-16T19:43:52.869Z,8.57
2022-11-16T19:46:21.717Z,8.54
2022-11-16T19:48:50.742Z,8.49
2022-11-16T19:51:21.696Z,8.50
2022-11-16T19:53:50.112Z,8.48
2022-11-16T19:56:19.181Z,8.49
2022-11-16T19:58:47.379Z,8.49
2022-11-16T20:01:17.170Z,8.47
2022-11-16T20:03:46.097Z,8.46
2022-11-16T20:06:15.360Z,8.45
2022-11-16T20:08:49.781Z,8.44
2022-11-16T20:11:20.777Z,8.46
2022-11-16T20:13:49.264Z,8.45
2022-11-16T20:16:18.194Z,8.43
2022-11-16T20:18:46.711Z,8.38
2022-11-16T20:21:18.041Z,8.37
2022-11-16T20:23:47.737Z,8.35
2022-11-16T20:26:16.158Z,8.37
2022-11-16T20:28:45.426Z,8.43
2022-11-16T20:31:14.440Z,8.48
2022-11-16T20:33:42.946Z,8.50
2022-11-16T20:36:12.627Z,8.48
2022-11-16T20:38:41.327Z,8.44
2022-11-16T20:41:12.308Z,8.42
2022-11-16T20:43:41.568Z,8.42
2022-11-16T20:46:10.798Z,8.45
2022-11-16T20:48:39.849Z,8.44
2022-11-16T20:51:08.963Z,8.44
2022-11-16T20:53:38.263Z,8.41
2022-11-16T20:56:07.760Z,8.33
2022-11-16T20:58:37.907Z,8.28
2022-11-16T21:01:07.760Z,8.27
2022-11-16T21:03:36.325Z,8.31
2022-11-16T21:06:05.319Z,8.32
2022-11-16T21:08:33.646Z,8.33
2022-11-16T21:11:02.334Z,8.35
2022-11-16T21:13:40.650Z,8.35
2022-11-16T21:16:12.180Z,8.35
2022-11-16T21:18:40.906Z,8.35
2022-11-16T21:21:10.146Z,8.35
2022-11-16T21:23:39.122Z,8.32
2022-11-16T21:26:08.007Z,8.33
2022-11-16T21:28:36.659Z,8.32
2022-11-16T21:31:06.502Z,8.31
2022-11-16T21:33:36.445Z,8.28
2022-11-16T21:36:05.909Z,8.27
2022-11-16T21:38:35.027Z,8.27
2022-11-16T21:41:04.539Z,8.27
2022-11-16T21:43:34.397Z,8.27
2022-11-16T21:46:03.606Z,8.24
2022-11-16T21:48:33.525Z,8.22
2022-11-16T21:51:04.771Z,8.24
2022-11-16T21:53:33.713Z,8.24
2022-11-16T21:56:02.849Z,8.21
2022-11-16T21:58:31.132Z,8.23
2022-11-16T22:01:00.356Z,8.26
2022-11-16T22:03:29.537Z,8.26
2022-11-16T22:06:12.779Z,8.29
2022-11-16T22:08:43.149Z,8.33
2022-11-16T22:11:11.837Z,8.29
2022-11-16T22:13:40.486Z,8.28
2022-11-16T22:16:09.858Z,8.24
2022-11-16T22:18:38.299Z,8.24
2022-11-16T22:21:06.799Z,8.25
2022-11-16T22:23:35.652Z,8.22
2022-11-16T22:26:07.058Z,8.23
2022-11-16T22:28:35.829Z,8.27
2022-11-16T22:31:05.139Z,8.30
2022-11-16T22:33:34.352Z,8.26
2022-11-16T22:36:03.946Z,8.26
2022-11-16T22:38:32.461Z,8.23
2022-11-16T22:41:00.687Z,8.23
2022-11-16T22:43:31.410Z,8.20
2022-11-16T22:46:00.757Z,8.19
2022-11-16T22:48:32.716Z,8.22
2022-11-16T22:51:04.940Z,8.22
2022-11-16T22:53:33.569Z,8.22
2022-11-16T22:56:09.038Z,8.20
2022-11-16T22:58:39.498Z,8.18
2022-11-16T23:01:08.990Z,8.20
2022-11-16T23:03:37.863Z,8.19
2022-11-16T23:06:07.692Z,8.16
2022-11-16T23:08:37.090Z,8.16
2022-11-16T23:11:16.649Z,8.19
2022-11-16T23:13:56.473Z,8.22
2022-11-16T23:16:24.807Z,8.24
2022-11-16T23:18:53.031Z,8.28
2022-11-16T23:21:31.209Z,8.33
2022-11-16T23:24:09.267Z,8.34
2022-11-16T23:26:47.481Z,8.34
2022-11-16T23:29:17.100Z,8.33
2022-11-16T23:31:45.513Z,8.31
2022-11-16T23:34:13.832Z,8.31
2022-11-16T23:36:43.560Z,8.31
2022-11-16T23:39:11.855Z,8.30
2022-11-16T23:41:49.552Z,8.31
2022-11-16T23:44:19.232Z,8.34
2022-11-16T23:46:47.527Z,8.33
2022-11-16T23:49:15.979Z,8.32
2022-11-16T23:51:44.240Z,8.31
2022-11-16T23:54:12.500Z,8.32
2022-11-16T23:56:40.919Z,8.33
2022-11-16T23:59:09.146Z,8.31
